Time;durP1;ratioP1;P1;durP2;ratioP2;P2;SDS_P1;SDS_P2;PMS_P1;PMS_P2;Temp;Humidity;BMP_temperature;BMP_pressure;BME280_temperature;BME280_humidity;BME280_pressure;Samples;Min_cycle;Max_cycle;Signal;HPM_P1;HPM_P2
2022/06/06 00:00:48;;;;;;;;;;;;;;;30.35;21.68;98236.72;5044269;28;19917;-82
2022/06/06 00:03:16;;;;;;;;;;;;;;;30.73;21.19;98237.00;5043004;28;20015;-82
2022/06/06 00:05:43;;;;;;;;;;;;;;;30.94;20.70;98240.91;5044599;28;19929;-82
2022/06/06 00:08:09;;;;;;;;;;;;;;;30.96;20.81;98247.69;5023920;28;20360;-81
2022/06/06 00:10:35;;;;;;;;;;;;;;;31.07;20.58;98250.78;5041816;28;20373;-81
2022/06/06 00:13:01;;;;;;;;;;;;;;;31.16;20.55;98247.13;5041260;28;20004;-81
2022/06/06 00:15:27;;;;;;;;;;;;;;;30.88;20.83;98248.47;5042404;28;20003;-82
2022/06/06 00:17:53;;;;;;;;;;;;;;;31.00;20.62;98250.34;5043757;28;19924;-81
2022/06/06 00:20:19;;;;;;;;;;;;;;;30.53;21.34;98246.00;5035066;28;20368;-82
2022/06/06 00:22:46;;;;;;;;;;;;;;;29.63;22.29;98231.75;5041972;28;20051;-81
2022/06/06 00:25:12;;;;;;;;;;;;;;;29.28;22.86;98231.97;5043068;28;20335;-82
2022/06/06 00:27:38;;;;;;;;;;;;;;;29.62;22.48;98235.81;5046236;28;19917;-81
2022/06/06 00:30:04;;;;;;;;;;;;;;;29.32;22.74;98241.09;5042715;28;19920;-81
2022/06/06 00:35:16;;;;;;;;;;;;;;;29.08;23.19;98237.19;5041162;28;19975;-81
2022/06/06 00:37:42;;;;;;;;;;;;;;;28.55;24.10;98224.31;5041282;28;19917;-81
2022/06/06 00:40:10;;;;;;;;;;;;;;;28.19;24.56;98224.84;5042224;28;20000;-81
2022/06/06 00:42:38;;;;;;;;;;;;;;;27.76;25.14;98236.03;5042618;28;19935;-81
2022/06/06 00:45:17;;;;;;;;;;;;;;;28.03;24.94;98231.44;5028085;28;19925;-81
2022/06/06 00:47:45;;;;;;;;;;;;;;;28.38;24.46;98225.78;5042396;28;19952;-81
2022/06/06 00:50:16;;;;;;;;;;;;;;;28.78;23.99;98229.50;5043199;28;19979;-82
2022/06/06 00:52:43;;;;;;;;;;;;;;;28.79;23.88;98231.09;5040489;28;19949;-81
2022/06/06 00:55:12;;;;;;;;;;;;;;;29.30;22.94;98234.31;5044971;28;19959;-82
2022/06/06 00:57:44;;;;;;;;;;;;;;;29.84;22.36;98233.69;5042494;28;19942;-81
2022/06/06 01:00:13;;;;;;;;;;;;;;;30.20;22.00;98232.94;5042756;28;20321;-82
2022/06/06 01:02:40;;;;;;;;;;;;;;;30.27;21.70;98241.13;5041171;28;19925;-82
2022/06/06 01:05:06;;;;;;;;;;;;;;;30.30;21.90;98255.13;5042038;28;20422;-82
2022/06/06 01:07:33;;;;;;;;;;;;;;;30.44;21.77;98251.69;5044759;28;19958;-82
2022/06/06 01:09:59;;;;;;;;;;;;;;;30.02;22.21;98245.03;5041989;28;20442;-82
2022/06/06 01:12:26;;;;;;;;;;;;;;;29.27;22.92;98249.38;5043592;28;19916;-82
2022/06/06 01:14:55;;;;;;;;;;;;;;;29.42;22.77;98239.09;5040553;28;19970;-82
2022/06/06 01:17:39;;;;;;;;;;;;;;;29.63;22.17;98237.41;5042835;28;19916;-82
2022/06/06 01:20:14;;;;;;;;;;;;;;;29.91;22.09;98239.06;5042616;28;19946;-82
2022/06/06 01:22:43;;;;;;;;;;;;;;;30.03;21.70;98241.75;5043273;28;19929;-82
2022/06/06 01:25:15;;;;;;;;;;;;;;;29.92;22.17;98243.47;5043635;28;19917;-82
2022/06/06 01:27:54;;;;;;;;;;;;;;;29.89;22.04;98250.88;5043455;28;19924;-82
2022/06/06 01:30:25;;;;;;;;;;;;;;;29.90;22.21;98240.31;5022086;28;20356;-82
2022/06/06 01:32:56;;;;;;;;;;;;;;;29.96;22.05;98242.06;5043936;28;19964;-82
2022/06/06 01:35:24;;;;;;;;;;;;;;;29.18;22.87;98236.00;5041344;28;20380;-82
2022/06/06 01:37:50;;;;;;;;;;;;;;;29.07;23.21;98232.00;5042049;28;19951;-82
2022/06/06 01:40:17;;;;;;;;;;;;;;;29.15;23.08;98236.13;5043353;28;19928;-82
2022/06/06 01:42:52;;;;;;;;;;;;;;;29.27;23.13;98232.41;5040253;28;19916;-82
2022/06/06 01:45:24;;;;;;;;;;;;;;;29.34;22.97;98230.09;5038750;28;20357;-82
2022/06/06 01:47:52;;;;;;;;;;;;;;;29.34;23.11;98234.97;5039157;28;19916;-82
2022/06/06 01:50:20;;;;;;;;;;;;;;;29.41;23.17;98243.16;5041868;28;19917;-82
2022/06/06 01:52:51;;;;;;;;;;;;;;;29.39;22.92;98240.00;5039694;28;19927;-82
2022/06/06 01:55:17;;;;;;;;;;;;;;;29.67;22.98;98243.69;5042719;28;19919;-82
2022/06/06 01:57:45;;;;;;;;;;;;;;;29.76;22.93;98238.06;5037995;28;19925;-82
2022/06/06 02:00:11;;;;;;;;;;;;;;;29.62;22.95;98236.59;5038398;28;19920;-82
2022/06/06 02:02:39;;;;;;;;;;;;;;;29.11;23.35;98241.91;5040119;28;19917;-82
2022/06/06 02:05:06;;;;;;;;;;;;;;;28.95;23.68;98244.97;5038884;28;19917;-82
2022/06/06 02:07:32;;;;;;;;;;;;;;;28.69;24.01;98237.91;5038722;28;20407;-82
2022/06/06 02:09:58;;;;;;;;;;;;;;;28.29;24.30;98234.16;5040408;28;19920;-82
2022/06/06 02:12:24;;;;;;;;;;;;;;;27.93;25.21;98232.59;5040709;28;20014;-82
2022/06/06 02:14:49;;;;;;;;;;;;;;;27.93;25.36;98224.13;5036717;28;19928;-82
2022/06/06 02:17:15;;;;;;;;;;;;;;;28.18;24.91;98222.47;5019997;28;20452;-82
2022/06/06 02:19:42;;;;;;;;;;;;;;;28.47;24.67;98226.59;5042917;28;19944;-82
2022/06/06 02:22:08;;;;;;;;;;;;;;;28.90;24.33;98222.16;5039153;28;20365;-82
2022/06/06 02:24:34;;;;;;;;;;;;;;;29.35;23.46;98214.72;5036502;28;19928;-82
2022/06/06 02:27:00;;;;;;;;;;;;;;;29.58;23.15;98218.22;5039258;28;19978;-82
2022/06/06 02:29:26;;;;;;;;;;;;;;;29.50;23.51;98216.94;5037324;28;19916;-82
2022/06/06 02:31:52;;;;;;;;;;;;;;;29.49;23.53;98206.88;5038687;28;19917;-82
2022/06/06 02:34:18;;;;;;;;;;;;;;;29.33;23.61;98210.78;5037666;28;19923;-82
2022/06/06 02:36:44;;;;;;;;;;;;;;;29.02;23.88;98210.78;5038114;28;20444;-81
2022/06/06 02:39:10;;;;;;;;;;;;;;;28.56;24.48;98211.75;5037019;28;19920;-79
2022/06/06 02:41:36;;;;;;;;;;;;;;;27.33;25.92;98208.44;5039947;28;19921;-81
2022/06/06 02:44:02;;;;;;;;;;;;;;;27.35;26.31;98206.72;5036737;28;20391;-81
2022/06/06 02:46:29;;;;;;;;;;;;;;;27.84;25.73;98203.50;5039715;28;19971;-81
2022/06/06 02:48:55;;;;;;;;;;;;;;;28.00;25.69;98204.16;5036243;28;19930;-81
2022/06/06 02:51:21;;;;;;;;;;;;;;;28.63;24.61;98214.34;5019868;28;20281;-80
2022/06/06 02:53:47;;;;;;;;;;;;;;;29.12;23.99;98220.88;5017041;28;19921;-81
2022/06/06 02:56:13;;;;;;;;;;;;;;;29.52;23.47;98222.91;5019244;28;20490;-81
2022/06/06 02:58:39;;;;;;;;;;;;;;;29.74;23.30;98220.75;5017292;28;19921;-81
2022/06/06 03:01:06;;;;;;;;;;;;;;;29.43;23.85;98223.66;5019539;28;20427;-80
2022/06/06 03:03:33;;;;;;;;;;;;;;;29.38;23.75;98222.25;5020508;28;19917;-80
2022/06/06 03:06:01;;;;;;;;;;;;;;;29.29;24.06;98219.38;5018705;28;20128;-80
2022/06/06 03:08:45;;;;;;;;;;;;;;;29.54;23.70;98229.69;5018461;28;19917;-81
2022/06/06 03:11:37;;;;;;;;;;;;;;;29.82;23.46;98236.22;5017966;28;19928;-80
2022/06/06 03:14:22;;;;;;;;;;;;;;;29.93;23.05;98245.03;5019952;28;20365;-80
2022/06/06 03:22:51;;;;;;;;;;;;;;;30.03;23.03;98267.25;5022531;28;19971;-80
2022/06/06 03:25:22;;;;;;;;;;;;;;;30.07;22.97;98253.72;5020893;28;20295;-80
2022/06/06 03:28:14;;;;;;;;;;;;;;;30.13;22.98;98256.69;5018564;28;19913;-80
2022/06/06 03:30:48;;;;;;;;;;;;;;;29.22;24.34;98261.34;5002369;28;20051;-80
2022/06/06 03:33:23;;;;;;;;;;;;;;;29.16;24.64;98249.00;5017385;28;19995;-80
2022/06/06 03:35:55;;;;;;;;;;;;;;;28.69;25.20;98241.53;5018536;28;19920;-80
2022/06/06 03:38:21;;;;;;;;;;;;;;;28.40;25.73;98240.22;5020926;28;19924;-80
2022/06/06 03:40:53;;;;;;;;;;;;;;;28.33;26.06;98229.19;5020078;28;20303;-80
2022/06/06 03:43:25;;;;;;;;;;;;;;;29.00;25.46;98235.09;5021243;28;19983;-80
2022/06/06 03:46:10;;;;;;;;;;;;;;;29.97;24.10;98228.66;5023891;28;19932;-80
2022/06/06 03:48:46;;;;;;;;;;;;;;;30.21;23.65;98223.16;5022139;28;19916;-80
2022/06/06 03:51:14;;;;;;;;;;;;;;;30.23;23.66;98218.59;5044828;28;19920;-81
2022/06/06 03:53:47;;;;;;;;;;;;;;;30.77;23.41;98220.59;5019476;28;19921;-79
2022/06/06 03:56:18;;;;;;;;;;;;;;;31.57;23.14;98217.97;5043907;28;19967;-80
2022/06/06 03:58:46;;;;;;;;;;;;;;;32.27;22.39;98216.38;5042879;28;19922;-82
2022/06/06 04:01:14;;;;;;;;;;;;;;;32.80;21.86;98221.22;5039703;28;19970;-84
2022/06/06 04:03:42;;;;;;;;;;;;;;;33.21;21.09;98235.16;5038741;28;19956;-83
2022/06/06 04:06:09;;;;;;;;;;;;;;;33.55;21.35;98245.03;5040550;28;19929;-81
2022/06/06 04:08:35;;;;;;;;;;;;;;;33.81;20.79;98242.28;5032325;28;19974;-79
2022/06/06 04:11:04;;;;;;;;;;;;;;;32.79;21.75;98226.16;5040827;28;19929;-80
2022/06/06 04:13:43;;;;;;;;;;;;;;;32.42;23.25;98224.91;5043136;28;20289;-84
2022/06/06 04:16:32;;;;;;;;;;;;;;;32.39;23.09;98221.00;5042048;28;20342;-83
2022/06/06 04:19:06;;;;;;;;;;;;;;;32.69;21.84;98231.16;5043767;28;19917;-84
2022/06/06 04:21:39;;;;;;;;;;;;;;;33.14;21.92;98226.25;5025324;28;19917;-83
2022/06/06 04:24:12;;;;;;;;;;;;;;;32.51;22.57;98211.41;5044827;28;19916;-84
2022/06/06 04:26:47;;;;;;;;;;;;;;;31.86;23.60;98220.13;5044721;28;19962;-84
2022/06/06 04:29:24;;;;;;;;;;;;;;;32.04;23.44;98220.03;5037827;28;23681;-84
2022/06/06 04:31:54;;;;;;;;;;;;;;;32.02;23.41;98222.56;5042769;28;20369;-84
2022/06/06 04:34:29;;;;;;;;;;;;;;;31.83;23.35;98219.06;5040238;28;19923;-85
2022/06/06 04:37:07;;;;;;;;;;;;;;;32.31;23.00;98214.09;5038058;28;19951;-84
2022/06/06 04:39:40;;;;;;;;;;;;;;;32.85;22.40;98209.16;5043431;28;20335;-85
2022/06/06 04:42:16;;;;;;;;;;;;;;;33.18;21.91;98215.44;5042723;28;19923;-84
2022/06/06 04:45:00;;;;;;;;;;;;;;;33.57;22.10;98211.13;5045457;28;19946;-85
2022/06/06 04:47:32;;;;;;;;;;;;;;;33.62;21.05;98218.19;5038981;28;19913;-87
2022/06/06 04:50:01;;;;;;;;;;;;;;;34.02;20.83;98216.16;5039627;28;20288;-84
2022/06/06 04:52:29;;;;;;;;;;;;;;;33.90;20.93;98213.66;5036970;28;19982;-84
2022/06/06 04:54:55;;;;;;;;;;;;;;;34.38;21.23;98228.28;5040514;28;20004;-85
2022/06/06 04:57:23;;;;;;;;;;;;;;;34.78;20.46;98228.19;5040960;28;19960;-83
2022/06/06 04:59:50;;;;;;;;;;;;;;;33.67;21.83;98223.97;5043986;28;19924;-84
2022/06/06 05:02:16;;;;;;;;;;;;;;;33.72;21.31;98228.97;5041808;28;19917;-82
2022/06/06 05:04:42;;;;;;;;;;;;;;;33.77;21.01;98227.47;5043119;28;20446;-82
2022/06/06 05:07:18;;;;;;;;;;;;;;;34.36;20.99;98217.34;5042739;28;19916;-82
2022/06/06 05:09:50;;;;;;;;;;;;;;;34.39;20.48;98227.75;5040685;28;20331;-83
2022/06/06 05:12:25;;;;;;;;;;;;;;;34.81;20.44;98218.63;5043178;28;19931;-84
2022/06/06 05:15:09;;;;;;;;;;;;;;;34.90;21.14;98223.34;5053402;28;19931;-83
2022/06/06 05:17:53;;;;;;;;;;;;;;;34.91;21.40;98234.28;5045457;28;19921;-83
2022/06/06 05:20:22;;;;;;;;;;;;;;;34.42;20.94;98231.69;5040588;28;19931;-84
2022/06/06 05:23:14;;;;;;;;;;;;;;;33.66;22.38;98227.31;5042650;28;19917;-84
2022/06/06 05:25:47;;;;;;;;;;;;;;;33.64;22.23;98238.41;5041729;28;20439;-84
2022/06/06 05:28:32;;;;;;;;;;;;;;;33.85;22.20;98235.09;5042145;28;19920;-83
2022/06/06 05:31:00;;;;;;;;;;;;;;;33.70;22.87;98240.06;5041995;28;20026;-83
2022/06/06 05:33:48;;;;;;;;;;;;;;;33.18;22.25;98233.31;5040472;28;19923;-83
2022/06/06 05:36:33;;;;;;;;;;;;;;;33.99;21.21;98236.31;5039478;28;19923;-83
2022/06/06 05:39:07;;;;;;;;;;;;;;;34.44;21.42;98241.31;5043051;28;20411;-82
2022/06/06 05:41:52;;;;;;;;;;;;;;;35.02;20.47;98242.19;5039106;28;19970;-82
2022/06/06 05:44:22;;;;;;;;;;;;;;;34.44;21.26;98238.44;5043631;28;19924;-82
2022/06/06 05:46:57;;;;;;;;;;;;;;;34.38;22.44;98240.44;5039539;28;19917;-82
2022/06/06 05:49:30;;;;;;;;;;;;;;;34.01;21.95;98233.75;5042929;28;19971;-82
2022/06/06 05:51:56;;;;;;;;;;;;;;;34.35;22.08;98235.75;5043243;28;20007;-82
2022/06/06 05:54:27;;;;;;;;;;;;;;;34.01;21.96;98236.59;5043452;28;20012;-82
2022/06/06 05:57:04;;;;;;;;;;;;;;;34.05;21.61;98245.75;5042882;28;19924;-82
2022/06/06 05:59:30;;;;;;;;;;;;;;;34.70;21.02;98247.81;5045391;28;19940;-82
2022/06/06 06:02:07;;;;;;;;;;;;;;;34.27;21.83;98240.31;5042139;28;19939;-82
2022/06/06 06:04:45;;;;;;;;;;;;;;;34.86;22.13;98255.00;5038964;28;20004;-82
2022/06/06 06:07:30;;;;;;;;;;;;;;;34.89;21.99;98258.91;5041311;28;19952;-82
2022/06/06 06:10:07;;;;;;;;;;;;;;;35.36;22.30;98252.56;5043119;28;20273;-81
2022/06/06 06:12:52;;;;;;;;;;;;;;;35.31;21.91;98256.94;5046133;28;20062;-82
2022/06/06 06:15:25;;;;;;;;;;;;;;;35.05;21.39;98255.44;5040471;28;20476;-83
2022/06/06 06:17:55;;;;;;;;;;;;;;;34.92;22.80;98257.88;5041428;28;19916;-82
2022/06/06 06:20:27;;;;;;;;;;;;;;;35.08;22.64;98255.22;5045090;28;19916;-83
2022/06/06 06:23:04;;;;;;;;;;;;;;;35.10;20.92;98254.72;5041802;28;20349;-83
2022/06/06 06:25:34;;;;;;;;;;;;;;;34.73;21.06;98258.22;5041417;28;19916;-82
2022/06/06 06:28:10;;;;;;;;;;;;;;;35.32;20.41;98266.31;5043160;28;19913;-82
2022/06/06 06:30:48;;;;;;;;;;;;;;;35.44;21.62;98259.41;5042465;28;19939;-82
2022/06/06 06:33:23;;;;;;;;;;;;;;;35.20;20.68;98262.59;5040704;28;20361;-82
2022/06/06 06:36:00;;;;;;;;;;;;;;;34.84;21.58;98256.78;5044094;28;19959;-82
2022/06/06 06:38:44;;;;;;;;;;;;;;;34.81;21.52;98258.56;5040912;28;19919;-82
2022/06/06 06:41:18;;;;;;;;;;;;;;;34.46;21.69;98249.34;5035464;28;19921;-82
2022/06/06 06:43:47;;;;;;;;;;;;;;;33.95;21.61;98247.94;5041382;28;19987;-82
2022/06/06 06:46:17;;;;;;;;;;;;;;;35.02;21.76;98260.09;5038448;28;19917;-82
2022/06/06 06:48:45;;;;;;;;;;;;;;;36.14;20.30;98264.53;5042587;28;19924;-82
2022/06/06 06:51:29;;;;;;;;;;;;;;;35.29;20.72;98267.31;5042151;28;20051;-82
2022/06/06 06:54:22;;;;;;;;;;;;;;;35.98;20.90;98257.47;5038046;28;20287;-82
2022/06/06 06:56:55;;;;;;;;;;;;;;;35.48;21.22;98264.88;5044197;28;20365;-82
2022/06/06 06:59:39;;;;;;;;;;;;;;;35.70;20.41;98259.34;5040282;28;20011;-80
2022/06/06 07:11:07;;;;;;;;;;;;;;;36.51;19.16;98254.56;5039257;28;19927;-79
2022/06/06 07:13:39;;;;;;;;;;;;;;;36.98;18.83;98258.59;5047520;28;20012;-80
2022/06/06 07:16:21;;;;;;;;;;;;;;;37.46;18.95;98254.72;5046400;28;19932;-80
2022/06/06 07:18:59;;;;;;;;;;;;;;;37.99;18.22;98254.38;5044006;28;19967;-80
2022/06/06 07:21:25;;;;;;;;;;;;;;;38.93;17.08;98258.91;5044584;28;19943;-80
2022/06/06 07:23:52;;;;;;;;;;;;;;;38.56;17.45;98260.16;5027998;28;19920;-80
2022/06/06 07:26:18;;;;;;;;;;;;;;;38.84;17.95;98262.13;5045241;28;19970;-80
2022/06/06 07:28:44;;;;;;;;;;;;;;;37.36;16.93;98260.69;5046536;28;19921;-80
2022/06/06 07:31:22;;;;;;;;;;;;;;;37.78;17.12;98268.22;5048076;28;19924;-80
2022/06/06 07:34:11;;;;;;;;;;;;;;;38.53;16.88;98263.31;5048045;28;20569;-80
2022/06/06 07:36:43;;;;;;;;;;;;;;;38.49;17.33;98260.72;5044751;28;19924;-80
2022/06/06 07:39:15;;;;;;;;;;;;;;;38.82;17.53;98261.84;5048416;28;20395;-81
2022/06/06 07:41:52;;;;;;;;;;;;;;;39.41;17.07;98256.19;5047343;28;19920;-80
2022/06/06 07:44:30;;;;;;;;;;;;;;;39.78;16.99;98264.22;5048339;28;20397;-80
2022/06/06 07:47:01;;;;;;;;;;;;;;;40.00;16.65;98256.13;5045807;28;19924;-79
2022/06/06 07:49:37;;;;;;;;;;;;;;;39.41;16.68;98255.41;5040775;28;20289;-80
2022/06/06 07:52:13;;;;;;;;;;;;;;;39.50;16.76;98260.81;5047438;28;20376;-80
2022/06/06 07:54:47;;;;;;;;;;;;;;;39.58;17.15;98259.75;5045084;28;20015;-80
2022/06/06 07:57:16;;;;;;;;;;;;;;;39.84;16.93;98251.34;5042736;28;19924;-79
2022/06/06 08:00:01;;;;;;;;;;;;;;;39.86;15.37;98254.44;5043403;28;19924;-79
2022/06/06 08:02:27;;;;;;;;;;;;;;;39.73;15.89;98260.09;5044414;28;19920;-80
2022/06/06 08:05:13;;;;;;;;;;;;;;;39.29;16.12;98249.78;5041384;28;19917;-79
2022/06/06 08:07:44;;;;;;;;;;;;;;;39.23;16.90;98251.91;5041095;28;20020;-79
2022/06/06 08:10:25;;;;;;;;;;;;;;;39.11;16.81;98250.44;5045491;28;19928;-80
2022/06/06 08:12:51;;;;;;;;;;;;;;;39.21;16.50;98257.41;5042645;28;19917;-80
2022/06/06 08:15:34;;;;;;;;;;;;;;;39.37;16.57;98264.34;5047536;28;20586;-79
2022/06/06 08:18:03;;;;;;;;;;;;;;;37.98;19.08;98253.59;5034975;28;20003;-80
2022/06/06 08:20:38;;;;;;;;;;;;;;;36.83;19.46;98251.53;5044052;28;19963;-80
2022/06/06 08:23:05;;;;;;;;;;;;;;;35.70;21.95;98254.41;5044784;28;19968;-80
2022/06/06 08:25:33;;;;;;;;;;;;;;;35.92;22.00;98260.25;5046180;28;19923;-80
2022/06/06 08:28:01;;;;;;;;;;;;;;;36.03;22.07;98256.72;5043158;28;19928;-81
2022/06/06 08:30:27;;;;;;;;;;;;;;;35.59;21.06;98257.22;5048048;28;19970;-80
2022/06/06 08:32:53;;;;;;;;;;;;;;;35.68;21.07;98251.28;5045622;28;19917;-80
2022/06/06 08:35:21;;;;;;;;;;;;;;;35.09;21.79;98256.78;5044471;28;19951;-80
2022/06/06 08:37:47;;;;;;;;;;;;;;;35.55;22.64;98264.44;5044448;28;19917;-80
2022/06/06 08:40:13;;;;;;;;;;;;;;;35.52;22.52;98265.47;5043392;28;19920;-81
2022/06/06 08:42:59;;;;;;;;;;;;;;;36.24;20.79;98268.75;5041237;28;20287;-80
2022/06/06 08:45:54;;;;;;;;;;;;;;;35.15;21.57;98265.41;5044442;28;19921;-80
2022/06/06 08:48:32;;;;;;;;;;;;;;;34.06;22.67;98272.97;5036167;28;19924;-80
2022/06/06 08:51:06;;;;;;;;;;;;;;;35.64;22.08;98262.16;5045613;28;19956;-80
2022/06/06 08:53:51;;;;;;;;;;;;;;;35.87;20.24;98263.09;5042711;28;19964;-80
2022/06/06 08:56:17;;;;;;;;;;;;;;;35.69;22.32;98269.97;5042856;28;19986;-80
2022/06/06 08:59:02;;;;;;;;;;;;;;;35.71;21.13;98261.69;5046391;28;19933;-80
2022/06/06 09:01:47;;;;;;;;;;;;;;;35.26;21.66;98260.56;5045206;28;20287;-80
2022/06/06 09:04:33;;;;;;;;;;;;;;;35.40;20.68;98259.63;5043897;28;20293;-80
2022/06/06 09:07:18;;;;;;;;;;;;;;;35.42;19.75;98256.28;5032069;28;19924;-80
2022/06/06 09:10:03;;;;;;;;;;;;;;;35.62;19.55;98255.38;5046060;28;19917;-80
2022/06/06 09:12:29;;;;;;;;;;;;;;;35.65;20.38;98252.31;5045634;28;19959;-80
2022/06/06 09:15:14;;;;;;;;;;;;;;;35.68;20.93;98247.66;5042189;28;19964;-80
2022/06/06 09:17:49;;;;;;;;;;;;;;;36.27;20.19;98242.00;5044941;28;19931;-80
2022/06/06 09:20:27;;;;;;;;;;;;;;;36.67;20.33;98233.81;5038630;28;19928;-80
2022/06/06 09:23:12;;;;;;;;;;;;;;;35.63;20.74;98242.69;5042091;28;23361;-80
2022/06/06 09:25:57;;;;;;;;;;;;;;;34.92;21.00;98247.25;5044754;28;19917;-80
2022/06/06 09:28:41;;;;;;;;;;;;;;;34.34;21.72;98248.44;5041519;28;19978;-80
2022/06/06 09:31:10;;;;;;;;;;;;;;;34.39;20.83;98242.03;5040350;28;19920;-79
2022/06/06 09:33:54;;;;;;;;;;;;;;;34.97;21.68;98232.25;5033064;28;19920;-80
2022/06/06 09:36:39;;;;;;;;;;;;;;;37.04;19.29;98224.25;5041586;28;19916;-80
2022/06/06 09:39:13;;;;;;;;;;;;;;;36.53;20.44;98226.22;5041719;28;19921;-80
2022/06/06 09:41:39;;;;;;;;;;;;;;;35.22;19.70;98227.81;5043795;28;19924;-80
2022/06/06 09:44:11;;;;;;;;;;;;;;;34.92;20.19;98237.91;5043177;28;19924;-80
2022/06/06 09:46:52;;;;;;;;;;;;;;;34.88;21.49;98231.66;5041309;28;19917;-80
2022/06/06 09:49:37;;;;;;;;;;;;;;;35.63;21.35;98229.19;5041686;28;20000;-80
2022/06/06 09:52:03;;;;;;;;;;;;;;;37.07;18.71;98226.06;5042372;28;19925;-80
2022/06/06 10:00:21;;;;;;;;;;;;;;;35.45;20.64;98226.69;5041929;28;19932;-80
2022/06/06 10:02:59;;;;;;;;;;;;;;;35.29;20.26;98228.13;5042478;28;19950;-81
2022/06/06 10:05:44;;;;;;;;;;;;;;;35.49;19.77;98232.94;5043347;28;19981;-80
2022/06/06 10:08:24;;;;;;;;;;;;;;;35.97;19.24;98222.38;5043822;28;19924;-80
2022/06/06 10:11:01;;;;;;;;;;;;;;;36.78;20.20;98221.59;5038201;28;19975;-81
2022/06/06 10:13:45;;;;;;;;;;;;;;;36.99;19.83;98220.09;5042221;28;19923;-80
2022/06/06 10:16:26;;;;;;;;;;;;;;;37.24;19.62;98216.19;5041280;28;19920;-80
2022/06/06 10:19:07;;;;;;;;;;;;;;;38.38;18.28;98214.88;5038435;28;19916;-81
2022/06/06 10:21:51;;;;;;;;;;;;;;;38.55;18.81;98209.03;5043521;28;19920;-80
2022/06/06 10:24:17;;;;;;;;;;;;;;;38.85;18.29;98201.28;5041879;28;20383;-80
2022/06/06 10:26:46;;;;;;;;;;;;;;;38.63;17.12;98207.13;5044304;28;19992;-81
2022/06/06 10:29:21;;;;;;;;;;;;;;;36.38;19.16;98197.06;5043177;28;19978;-80
2022/06/06 10:32:06;;;;;;;;;;;;;;;37.51;18.63;98203.13;5022136;28;20273;-81
2022/06/06 10:35:04;;;;;;;;;;;;;;;38.87;17.98;98198.66;5041632;28;19929;-81
2022/06/06 10:37:39;;;;;;;;;;;;;;;38.15;17.86;98196.19;4989090;28;20373;-81
2022/06/06 10:40:15;;;;;;;;;;;;;;;37.36;18.21;98194.81;5044356;28;19931;-81
2022/06/06 10:42:57;;;;;;;;;;;;;;;38.15;17.92;98193.31;5040328;28;20265;-81
2022/06/06 10:45:25;;;;;;;;;;;;;;;35.76;20.64;98188.72;5044921;28;20008;-81
2022/06/06 10:48:06;;;;;;;;;;;;;;;35.32;20.57;98192.84;5046958;28;19944;-81
2022/06/06 10:53:56;;;;;;;;;;;;;;;35.55;22.41;98190.16;5046285;28;20018;-81
2022/06/06 10:56:40;;;;;;;;;;;;;;;35.69;21.07;98189.19;5046981;28;19924;-80
2022/06/06 10:59:22;;;;;;;;;;;;;;;37.16;19.93;98175.03;5044989;28;19920;-80
2022/06/06 11:01:48;;;;;;;;;;;;;;;38.03;19.68;98174.59;5045656;28;20371;-81
2022/06/06 11:04:20;;;;;;;;;;;;;;;38.09;19.44;98175.31;5043236;28;19917;-81
2022/06/06 11:06:52;;;;;;;;;;;;;;;36.80;19.83;98173.22;5046460;28;19916;-81
2022/06/06 11:09:24;;;;;;;;;;;;;;;37.11;19.94;98163.59;5046234;28;19917;-81
2022/06/06 11:12:08;;;;;;;;;;;;;;;35.70;20.00;98173.63;5045025;28;19921;-81
2022/06/06 11:14:39;;;;;;;;;;;;;;;35.93;19.51;98173.22;5044121;28;19924;-81
2022/06/06 11:17:24;;;;;;;;;;;;;;;35.18;21.35;98170.97;5044055;28;19928;-81
2022/06/06 11:20:03;;;;;;;;;;;;;;;34.75;20.66;98158.66;5043731;28;19917;-81
2022/06/06 11:22:38;;;;;;;;;;;;;;;35.38;21.50;98170.06;5045094;28;20276;-81
2022/06/06 11:25:10;;;;;;;;;;;;;;;35.64;20.83;98170.72;5044280;28;20361;-81
2022/06/06 11:27:54;;;;;;;;;;;;;;;36.15;19.42;98157.47;5044292;28;19933;-81
2022/06/06 11:30:29;;;;;;;;;;;;;;;37.21;18.50;98162.00;5044358;28;19917;-81
2022/06/06 11:33:14;;;;;;;;;;;;;;;37.49;18.20;98150.53;5034691;28;19944;-81
2022/06/06 11:35:49;;;;;;;;;;;;;;;39.06;17.74;98152.81;5047059;28;19923;-81
2022/06/06 11:38:37;;;;;;;;;;;;;;;38.32;18.00;98153.09;5044568;28;20015;-81
2022/06/06 11:41:16;;;;;;;;;;;;;;;38.80;17.66;98155.38;5046896;28;19921;-81
2022/06/06 11:43:53;;;;;;;;;;;;;;;39.51;17.23;98151.06;5045671;28;19917;-82
2022/06/06 11:46:38;;;;;;;;;;;;;;;39.55;16.20;98151.53;5051693;28;20284;-81
2022/06/06 11:49:20;;;;;;;;;;;;;;;40.01;15.91;98150.50;5049343;28;19966;-81
2022/06/06 11:52:01;;;;;;;;;;;;;;;38.37;17.18;98141.56;5035733;28;19940;-82
2022/06/06 11:54:30;;;;;;;;;;;;;;;39.06;15.76;98147.84;5055456;28;19920;-81
2022/06/06 11:57:08;;;;;;;;;;;;;;;39.39;16.63;98141.00;5056213;28;19919;-81
2022/06/06 11:59:51;;;;;;;;;;;;;;;40.15;16.07;98143.50;5055422;28;19981;-81
2022/06/06 12:02:46;;;;;;;;;;;;;;;40.94;14.42;98130.28;5054796;28;19923;-81
2022/06/06 12:05:22;;;;;;;;;;;;;;;40.57;13.11;98128.25;5051131;28;20426;-84
2022/06/06 12:07:58;;;;;;;;;;;;;;;39.76;15.54;98141.13;5050726;28;19966;-88
2022/06/06 12:10:34;;;;;;;;;;;;;;;39.09;15.12;98128.75;5047233;28;19928;-85
2022/06/06 12:13:28;;;;;;;;;;;;;;;39.94;16.23;98134.63;5048820;28;20377;-85
2022/06/06 12:15:56;;;;;;;;;;;;;;;40.53;14.68;98127.81;5048007;28;19919;-84
2022/06/06 12:18:35;;;;;;;;;;;;;;;40.87;15.60;98125.16;5049721;28;19917;-85
2022/06/06 12:21:01;;;;;;;;;;;;;;;41.46;14.49;98120.19;5047123;28;19909;-82
2022/06/06 12:23:45;;;;;;;;;;;;;;;40.63;13.72;98120.31;5040759;28;19917;-84
2022/06/06 12:26:31;;;;;;;;;;;;;;;40.36;14.21;98114.94;5051677;28;20010;-84
2022/06/06 12:28:57;;;;;;;;;;;;;;;39.61;14.84;98126.41;5046676;28;19999;-83
2022/06/06 12:31:35;;;;;;;;;;;;;;;39.38;15.53;98114.38;5043768;28;19960;-84
2022/06/06 12:34:15;;;;;;;;;;;;;;;38.00;16.14;98101.88;5045557;28;20027;-81
2022/06/06 12:36:43;;;;;;;;;;;;;;;38.72;16.08;98101.41;5048248;28;20066;-81
2022/06/06 12:39:27;;;;;;;;;;;;;;;39.07;14.81;98096.91;5053130;28;20043;-80
2022/06/06 12:41:59;;;;;;;;;;;;;;;39.01;14.31;98091.22;5044306;28;19928;-82
2022/06/06 12:44:31;;;;;;;;;;;;;;;38.36;15.18;98091.25;5033005;28;19928;-81
2022/06/06 12:47:13;;;;;;;;;;;;;;;39.31;15.37;98091.97;5049400;28;19912;-81
2022/06/06 12:49:58;;;;;;;;;;;;;;;38.85;15.15;98088.50;5042654;28;20949;-81
2022/06/06 12:52:27;;;;;;;;;;;;;;;39.43;14.41;98083.22;5029700;28;19924;-80
2022/06/06 12:56:12;;;;;;;;;;;;;;;40.02;14.59;98080.16;5042257;28;19956;-81
2022/06/06 12:58:07;;;;;;;;;;;;;;;39.31;15.29;98086.22;5045517;28;19917;-81
2022/06/06 13:03:37;;;;;;;;;;;;;;;40.66;14.00;98076.03;5046060;28;20426;-82
2022/06/06 13:06:26;;;;;;;;;;;;;;;40.69;14.54;98063.41;5051357;28;19917;-82
2022/06/06 13:08:52;;;;;;;;;;;;;;;40.65;13.84;98065.06;5051902;28;19912;-82
2022/06/06 13:11:30;;;;;;;;;;;;;;;39.56;13.62;98060.34;5048220;28;19928;-81
2022/06/06 13:14:08;;;;;;;;;;;;;;;39.40;15.27;98062.09;5029869;28;20008;-82
2022/06/06 13:16:40;;;;;;;;;;;;;;;38.75;15.47;98064.31;5049324;28;19916;-81
2022/06/06 13:19:06;;;;;;;;;;;;;;;38.64;15.69;98057.34;5047452;28;19917;-83
2022/06/06 13:21:39;;;;;;;;;;;;;;;37.42;16.63;98057.31;5048030;28;19935;-82
2022/06/06 13:24:11;;;;;;;;;;;;;;;38.89;15.00;98043.03;5042714;28;19924;-80
2022/06/06 13:26:48;;;;;;;;;;;;;;;40.00;16.11;98045.38;5054471;28;19935;-81
2022/06/06 13:29:25;;;;;;;;;;;;;;;39.44;14.02;98053.19;5052384;28;19923;-80
2022/06/06 13:31:57;;;;;;;;;;;;;;;38.70;14.43;98049.47;5037389;28;19923;-81
2022/06/06 13:34:42;;;;;;;;;;;;;;;38.80;15.58;98054.88;5034817;28;19921;-81
2022/06/06 13:37:27;;;;;;;;;;;;;;;39.36;15.12;98047.25;5043644;28;19974;-81
2022/06/06 13:39:55;;;;;;;;;;;;;;;38.88;14.89;98047.25;5037982;28;19978;-82
2022/06/06 13:42:40;;;;;;;;;;;;;;;38.77;14.89;98053.09;5045204;28;19921;-81
2022/06/06 13:45:12;;;;;;;;;;;;;;;39.67;14.81;98055.25;5049758;28;20376;-81
2022/06/06 13:47:53;;;;;;;;;;;;;;;40.34;13.68;98048.53;5047238;28;20377;-81
2022/06/06 13:50:25;;;;;;;;;;;;;;;40.67;13.77;98048.00;5045791;28;19946;-80
2022/06/06 13:53:02;;;;;;;;;;;;;;;40.54;15.12;98042.97;5037290;28;19924;-80